createdAt,value
2018-08-04T00:02:08.254Z,64.50
2018-08-04T00:04:37.360Z,64.46
2018-08-04T00:07:06.595Z,64.77
2018-08-04T00:09:35.876Z,63.94
2018-08-04T00:12:05.139Z,65.74
2018-08-04T00:14:34.305Z,64.83
2018-08-04T00:17:03.695Z,65.65
2018-08-04T00:19:32.963Z,64.10
2018-08-04T00:22:02.282Z,65.50
2018-08-04T00:24:31.464Z,65.59
2018-08-04T00:27:00.698Z,61.23
2018-08-04T00:29:29.739Z,59.88
2018-08-04T00:31:59.118Z,62.88
2018-08-04T00:34:28.127Z,66.02
2018-08-04T00:36:57.836Z,66.55
2018-08-04T00:39:27.025Z,65.69
2018-08-04T00:41:56.183Z,66.45
2018-08-04T00:44:25.332Z,66.71
2018-08-04T00:46:54.452Z,66.72
2018-08-04T00:49:24.080Z,66.61
2018-08-04T00:51:53.420Z,65.99
2018-08-04T00:54:22.559Z,67.55
2018-08-04T00:56:51.667Z,67.72
2018-08-04T00:59:21.064Z,67.27
2018-08-04T01:01:50.282Z,66.29
2018-08-04T01:04:19.756Z,66.53
2018-08-04T01:06:49.192Z,67.47
2018-08-04T01:09:18.052Z,66.57
2018-08-04T01:11:47.316Z,67.80
2018-08-04T01:14:16.611Z,67.30
2018-08-04T01:16:45.771Z,68.41
2018-08-04T01:19:14.917Z,67.71
2018-08-04T01:21:44.172Z,67.17
2018-08-04T01:24:13.331Z,67.84
2018-08-04T01:26:42.672Z,68.42
2018-08-04T01:29:11.831Z,68.56
2018-08-04T01:31:41.065Z,67.63
2018-08-04T01:34:11.363Z,68.81
2018-08-04T01:36:40.287Z,69.34
2018-08-04T01:39:10.639Z,68.91
2018-08-04T01:41:40.025Z,70.36
2018-08-04T01:44:09.408Z,70.00
2018-08-04T01:46:38.695Z,70.41
2018-08-04T01:49:07.857Z,70.07
2018-08-04T01:51:37.206Z,70.88
2018-08-04T01:54:06.332Z,70.40
2018-08-04T01:56:35.836Z,70.10
2018-08-04T01:59:05.217Z,71.47
2018-08-04T02:01:34.806Z,71.71
2018-08-04T02:04:04.017Z,70.89
2018-08-04T02:09:12.150Z,72.04
2018-08-04T02:11:41.271Z,71.58
2018-08-04T02:14:10.653Z,71.62
2018-08-04T02:16:39.928Z,72.60
2018-08-04T02:19:09.012Z,72.30
2018-08-04T02:21:38.222Z,72.91
2018-08-04T02:24:07.195Z,72.19
2018-08-04T02:26:37.024Z,73.05
2018-08-04T02:29:06.188Z,72.27
2018-08-04T02:31:35.437Z,72.77
2018-08-04T02:34:04.601Z,72.52
2018-08-04T02:36:33.716Z,71.54
2018-08-04T02:39:02.950Z,73.79
2018-08-04T02:41:32.324Z,74.31
2018-08-04T02:44:01.582Z,73.11
2018-08-04T02:46:31.129Z,72.90
2018-08-04T02:49:00.608Z,73.88
2018-08-04T02:51:29.843Z,73.33
2018-08-04T02:53:59.021Z,74.44
2018-08-04T02:56:28.131Z,74.41
2018-08-04T02:58:57.367Z,73.65
2018-08-04T03:01:26.712Z,73.29
2018-08-04T03:03:55.853Z,74.09
2018-08-04T03:06:25.106Z,75.03
2018-08-04T03:08:54.193Z,74.98
2018-08-04T03:11:23.701Z,75.80
2018-08-04T03:13:52.958Z,76.12
2018-08-04T03:16:22.095Z,76.01
2018-08-04T03:18:51.328Z,76.24
2018-08-04T03:21:20.447Z,75.59
2018-08-04T03:23:49.815Z,76.92
2018-08-04T03:26:19.108Z,76.85
2018-08-04T03:28:48.295Z,77.07
2018-08-04T03:31:17.400Z,76.61
2018-08-04T03:33:46.595Z,77.35
2018-08-04T03:36:15.795Z,76.66
2018-08-04T03:38:44.885Z,77.69
2018-08-04T03:41:14.152Z,76.80
2018-08-04T03:43:43.286Z,76.90
2018-08-04T03:46:12.198Z,77.68
2018-08-04T03:48:41.146Z,77.67
2018-08-04T03:51:10.382Z,78.14
2018-08-04T03:53:39.562Z,77.65
2018-08-04T03:56:08.944Z,77.30
2018-08-04T03:58:38.027Z,78.36
2018-08-04T05:20:21.114Z,74.63
2018-08-04T05:22:49.939Z,72.66
2018-08-04T05:25:18.828Z,73.12
2018-08-04T05:27:47.561Z,71.35
2018-08-04T05:30:16.413Z,68.85
2018-08-04T05:32:45.243Z,67.29
2018-08-04T05:35:14.150Z,66.07
2018-08-04T05:37:43.082Z,66.07
2018-08-04T05:40:12.175Z,65.16
2018-08-04T05:42:40.853Z,64.14
2018-08-04T05:45:10.304Z,64.01
2018-08-04T05:47:40.035Z,61.36
2018-08-04T05:50:08.725Z,59.56
2018-08-04T05:52:37.665Z,59.54
2018-08-04T05:55:06.511Z,57.88
2018-08-04T05:57:35.339Z,57.79
2018-08-04T06:00:04.491Z,56.51
2018-08-04T06:02:33.071Z,53.00
2018-08-04T06:05:01.800Z,52.43
2018-08-04T06:07:31.017Z,52.56
2018-08-04T06:09:59.747Z,53.75
2018-08-04T06:12:28.775Z,52.33
2018-08-04T06:14:57.681Z,53.77
2018-08-04T06:17:26.766Z,52.07
2018-08-04T06:19:56.062Z,52.49
2018-08-04T06:22:25.016Z,51.59
2018-08-04T06:24:54.276Z,52.16
2018-08-04T06:27:23.119Z,52.39
2018-08-04T06:29:52.032Z,50.47
2018-08-04T06:32:20.951Z,50.96
2018-08-04T06:34:49.676Z,51.43
2018-08-04T06:37:18.516Z,51.24
2018-08-04T06:39:47.597Z,50.12
2018-08-04T06:42:16.323Z,50.43
2018-08-04T06:44:45.011Z,50.70
2018-08-04T06:47:14.484Z,49.07
2018-08-04T06:49:43.159Z,49.84
2018-08-04T06:52:11.957Z,49.83
2018-08-04T06:54:40.751Z,49.71
2018-08-04T06:57:09.847Z,48.95
2018-08-04T06:59:38.578Z,48.93
2018-08-04T07:02:07.819Z,47.44
2018-08-04T07:04:36.743Z,48.35
2018-08-04T07:07:06.032Z,46.69
2018-08-04T07:09:35.066Z,46.58
2018-08-04T07:12:04.202Z,46.80
2018-08-04T07:14:32.979Z,46.25
2018-08-04T07:17:01.702Z,46.68
2018-08-04T07:19:31.915Z,46.55
2018-08-04T07:22:00.609Z,46.78
2018-08-04T07:24:30.884Z,46.25
2018-08-04T07:26:59.855Z,45.51
2018-08-04T07:29:28.746Z,45.85
2018-08-04T07:31:57.476Z,45.72
2018-08-04T07:34:26.372Z,46.23
2018-08-04T07:36:55.168Z,46.31
2018-08-04T07:39:23.961Z,45.33
2018-08-04T07:41:52.851Z,45.87
2018-08-04T07:44:21.905Z,45.27
2018-08-04T07:46:50.822Z,46.23
2018-08-04T07:49:19.571Z,44.86
2018-08-04T07:51:48.560Z,45.24
2018-08-04T07:54:17.513Z,44.34
2018-08-04T07:56:46.298Z,45.38
2018-08-04T07:59:14.932Z,44.96
2018-08-04T08:01:43.960Z,45.08
2018-08-04T08:04:13.285Z,44.99
2018-08-04T08:06:42.369Z,44.61
2018-08-04T08:09:11.156Z,44.15
2018-08-04T08:11:40.274Z,44.20
2018-08-04T08:14:09.277Z,43.82
2018-08-04T08:16:38.487Z,44.38
2018-08-04T08:19:07.590Z,44.34
2018-08-04T08:21:36.290Z,44.29
2018-08-04T08:24:05.133Z,44.27
2018-08-04T08:26:34.095Z,43.64
2018-08-04T08:29:03.411Z,43.50
2018-08-04T08:31:32.311Z,43.34
2018-08-04T08:34:01.076Z,42.61
2018-08-04T08:36:29.895Z,43.38
2018-08-04T08:38:58.640Z,42.19
2018-08-04T08:41:28.251Z,41.74
2018-08-04T08:43:57.363Z,41.56
2018-08-04T08:46:26.635Z,41.88
2018-08-04T08:48:55.300Z,41.88
2018-08-04T08:51:24.200Z,41.20
2018-08-04T08:53:53.332Z,41.06
2018-08-04T08:56:22.166Z,41.34
2018-08-04T08:58:51.280Z,41.46
2018-08-04T09:01:20.214Z,40.73
2018-08-04T09:03:49.183Z,39.95
2018-08-04T09:06:18.060Z,39.94
2018-08-04T09:08:47.462Z,40.59
2018-08-04T09:11:16.219Z,40.29
2018-08-04T09:13:45.023Z,39.87
2018-08-04T09:16:14.020Z,39.57
2018-08-04T09:18:42.869Z,39.57
2018-08-04T09:21:11.667Z,38.57
2018-08-04T09:23:40.535Z,38.94
2018-08-04T09:26:09.523Z,38.45
2018-08-04T09:28:38.464Z,39.10
2018-08-04T09:31:07.631Z,38.78
2018-08-04T09:33:36.617Z,39.42
2018-08-04T09:36:05.971Z,38.40
2018-08-04T09:38:34.891Z,39.13
2018-08-04T09:41:04.211Z,38.50
2018-08-04T09:43:33.448Z,37.49
2018-08-04T09:46:03.021Z,35.92
2018-08-04T09:48:32.243Z,36.53
2018-08-04T09:51:01.337Z,35.45
2018-08-04T09:53:30.246Z,35.67
2018-08-04T09:55:59.297Z,35.12
2018-08-04T09:58:28.019Z,33.72
2018-08-04T10:01:03.461Z,35.23
2018-08-04T10:03:33.035Z,34.05
2018-08-04T10:06:01.872Z,34.35
2018-08-04T10:08:30.643Z,33.16
2018-08-04T10:10:59.406Z,33.53
2018-08-04T10:13:28.036Z,33.55
2018-08-04T10:15:57.424Z,34.44
2018-08-04T10:18:27.136Z,33.08
2018-08-04T10:20:56.155Z,33.66
2018-08-04T10:23:25.184Z,32.59
2018-08-04T10:25:54.158Z,33.71
2018-08-04T10:28:22.968Z,33.83
2018-08-04T10:30:52.050Z,33.37
2018-08-04T10:33:20.654Z,34.07
2018-08-04T10:35:49.645Z,33.06
2018-08-04T10:38:18.896Z,33.23
2018-08-04T10:40:47.833Z,31.84
2018-08-04T10:43:17.243Z,32.71
2018-08-04T10:45:46.227Z,33.64
2018-08-04T10:48:15.107Z,30.16
2018-08-04T10:50:44.056Z,30.15
2018-08-04T10:53:13.409Z,29.80
2018-08-04T10:55:42.152Z,31.36
2018-08-04T10:58:11.503Z,28.77
2018-08-04T11:00:40.184Z,31.53
2018-08-04T11:03:08.975Z,30.73
2018-08-04T11:05:38.447Z,30.28
2018-08-04T11:08:07.127Z,33.53
2018-08-04T11:10:36.346Z,31.00
2018-08-04T11:13:05.722Z,31.48
2018-08-04T11:15:34.656Z,31.24
2018-08-04T11:18:03.967Z,32.29
2018-08-04T11:20:32.746Z,30.82
2018-08-04T11:23:01.945Z,29.15
2018-08-04T11:25:30.763Z,27.46
2018-08-04T11:27:59.568Z,27.12
2018-08-04T11:30:28.859Z,26.90
2018-08-04T11:32:57.758Z,28.69
2018-08-04T11:35:26.598Z,30.89
2018-08-04T11:37:55.685Z,30.51
2018-08-04T11:40:24.454Z,31.65
2018-08-04T11:42:57.087Z,34.44
2018-08-04T11:45:26.803Z,34.40
2018-08-04T11:47:58.120Z,32.50
2018-08-04T11:50:32.825Z,33.63
2018-08-04T11:53:03.382Z,32.15
2018-08-04T11:55:32.837Z,28.59
2018-08-04T11:58:01.772Z,27.27
2018-08-04T12:00:30.663Z,29.10
2018-08-04T12:03:00.561Z,31.07
2018-08-04T12:05:29.501Z,30.60
2018-08-04T12:07:58.347Z,32.32
2018-08-04T12:10:27.353Z,28.68
2018-08-04T12:12:56.025Z,26.84
2018-08-04T12:15:25.068Z,26.79
2018-08-04T12:17:54.025Z,28.21
2018-08-04T12:20:23.090Z,28.83
2018-08-04T12:22:52.463Z,29.23
2018-08-04T12:25:21.941Z,29.23
2018-08-04T12:27:51.996Z,30.71
2018-08-04T12:30:20.823Z,31.91
2018-08-04T12:32:49.460Z,33.01
2018-08-04T12:35:19.081Z,32.79
2018-08-04T12:37:48.577Z,32.95
2018-08-04T12:40:17.489Z,32.86
2018-08-04T12:42:47.606Z,31.64
2018-08-04T12:45:16.544Z,33.31
2018-08-04T12:47:45.288Z,29.30
2018-08-04T12:50:15.375Z,30.55
2018-08-04T12:52:44.378Z,29.90
2018-08-04T12:55:13.113Z,30.31
2018-08-04T12:57:42.087Z,28.33
2018-08-04T13:00:12.076Z,27.77
2018-08-04T13:02:41.318Z,26.79
2018-08-04T13:05:10.351Z,28.51
2018-08-04T13:07:39.421Z,25.96
2018-08-04T13:10:08.295Z,24.88
2018-08-04T13:12:43.919Z,26.55
2018-08-04T13:15:13.890Z,30.05
2018-08-04T13:17:42.638Z,29.23
2018-08-04T13:20:11.374Z,31.07
2018-08-04T13:22:40.523Z,31.31
2018-08-04T13:25:09.583Z,31.16
2018-08-04T13:27:38.642Z,27.78
2018-08-04T13:30:15.231Z,25.29
2018-08-04T13:32:43.971Z,25.94
2018-08-04T13:35:13.032Z,26.93
2018-08-04T13:37:41.731Z,29.36
2018-08-04T13:40:10.919Z,28.08
2018-08-04T13:42:39.853Z,26.65
2018-08-04T13:45:09.010Z,25.49
2018-08-04T13:47:37.942Z,28.93
2018-08-04T13:50:07.001Z,30.28
2018-08-04T13:52:36.211Z,30.50
2018-08-04T13:55:05.239Z,27.67
2018-08-04T13:57:33.977Z,26.71
2018-08-04T14:00:02.761Z,26.45
2018-08-04T14:02:31.543Z,28.81
2018-08-04T14:05:00.563Z,29.44
2018-08-04T14:07:29.277Z,27.09
2018-08-04T14:09:58.252Z,28.26
2018-08-04T14:12:27.105Z,27.95
2018-08-04T14:14:56.270Z,26.67
2018-08-04T14:17:25.396Z,27.17
2018-08-04T14:19:54.237Z,26.94
2018-08-04T14:22:23.741Z,25.74
2018-08-04T14:24:59.607Z,28.87
2018-08-04T14:27:28.981Z,29.44
2018-08-04T14:29:58.005Z,24.39
2018-08-04T14:32:26.734Z,23.54
2018-08-04T14:34:55.532Z,23.95
2018-08-04T14:37:24.260Z,23.59
2018-08-04T14:39:52.930Z,23.63
2018-08-04T14:42:21.658Z,24.04
2018-08-04T14:44:50.837Z,24.06
2018-08-04T14:47:20.532Z,22.48
2018-08-04T14:49:49.309Z,24.10
2018-08-04T14:52:18.554Z,23.62
2018-08-04T14:54:47.538Z,24.02
2018-08-04T14:57:16.411Z,24.17
2018-08-04T14:59:45.298Z,23.14
2018-08-04T15:02:14.608Z,23.95
2018-08-04T15:04:43.541Z,24.21
2018-08-04T15:07:12.196Z,24.03
2018-08-04T15:09:40.958Z,24.77
2018-08-04T15:12:09.823Z,25.66
2018-08-04T15:14:38.635Z,28.06
2018-08-04T15:17:07.343Z,26.36
2018-08-04T15:19:36.276Z,26.12
2018-08-04T15:22:05.414Z,27.86
2018-08-04T15:24:34.304Z,28.17
2018-08-04T15:27:03.234Z,27.66
2018-08-04T15:29:32.084Z,31.28
2018-08-04T15:32:01.079Z,32.87
2018-08-04T15:34:30.189Z,33.47
2018-08-04T15:36:59.212Z,33.41
2018-08-04T15:39:27.961Z,34.28
2018-08-04T15:41:56.763Z,33.95
2018-08-04T15:44:25.584Z,33.40
2018-08-04T15:46:54.498Z,34.01
2018-08-04T15:49:23.416Z,33.96
2018-08-04T15:51:52.103Z,32.92
2018-08-04T15:54:20.819Z,31.46
2018-08-04T15:56:49.696Z,32.13
2018-08-04T15:59:18.616Z,30.00
2018-08-04T16:01:47.708Z,31.71
2018-08-04T16:04:16.968Z,30.33
2018-08-04T16:06:45.869Z,29.68
2018-08-04T16:09:14.749Z,33.01
2018-08-04T16:11:43.538Z,34.30
2018-08-04T16:14:12.279Z,33.20
2018-08-04T16:16:41.404Z,34.65
2018-08-04T16:19:10.220Z,35.64
2018-08-04T16:21:39.576Z,36.29
2018-08-04T16:24:08.398Z,37.30
2018-08-04T16:26:37.219Z,38.40
2018-08-04T16:29:06.157Z,39.28
2018-08-04T16:31:34.963Z,39.10
2018-08-04T16:34:03.875Z,39.73
2018-08-04T16:36:32.594Z,40.35
2018-08-04T16:39:02.157Z,39.55
2018-08-04T16:41:31.147Z,40.44
2018-08-04T16:44:00.010Z,40.75
2018-08-04T16:46:28.789Z,41.15
2018-08-04T16:48:57.604Z,42.02
2018-08-04T16:51:26.327Z,42.49
2018-08-04T16:53:54.997Z,42.10
2018-08-04T16:56:23.690Z,41.71
2018-08-04T16:58:52.460Z,41.84
2018-08-04T17:01:21.371Z,41.60
2018-08-04T17:03:50.124Z,43.43
2018-08-04T17:06:18.940Z,42.27
2018-08-04T17:08:48.546Z,43.44
2018-08-04T17:11:17.572Z,42.55
2018-08-04T17:13:46.376Z,42.58
2018-08-04T17:16:15.213Z,43.55
2018-08-04T17:18:43.836Z,43.71
2018-08-04T17:21:12.580Z,44.05
2018-08-04T17:23:41.435Z,44.69
2018-08-04T17:26:10.357Z,44.72
2018-08-04T17:28:39.884Z,44.69
2018-08-04T17:31:09.191Z,46.34
2018-08-04T17:33:37.848Z,46.44
2018-08-04T17:36:06.948Z,45.83
2018-08-04T17:38:36.626Z,46.28
2018-08-04T17:41:06.175Z,46.79
2018-08-04T17:43:35.261Z,47.98
2018-08-04T17:46:04.142Z,47.39
2018-08-04T17:48:32.883Z,47.79
2018-08-04T17:51:01.932Z,46.97
2018-08-04T17:53:30.964Z,47.01
2018-08-04T17:56:00.121Z,47.74
2018-08-04T17:58:28.957Z,48.04
2018-08-04T18:00:58.324Z,47.40
2018-08-04T18:03:27.108Z,48.60
2018-08-04T18:05:55.856Z,48.88
2018-08-04T18:08:24.943Z,48.36
2018-08-04T18:10:53.934Z,49.85
2018-08-04T18:13:22.723Z,49.98
2018-08-04T18:15:51.798Z,50.48
2018-08-04T18:18:20.644Z,50.01
2018-08-04T18:20:49.782Z,50.48
2018-08-04T18:23:18.756Z,50.51
2018-08-04T18:25:47.768Z,51.24
2018-08-04T18:28:16.591Z,50.78
2018-08-04T18:30:45.312Z,50.00
2018-08-04T18:33:14.202Z,51.16
2018-08-04T18:35:43.275Z,51.28
2018-08-04T18:38:12.198Z,49.65
2018-08-04T18:40:41.083Z,50.75
2018-08-04T18:43:11.324Z,50.91
2018-08-04T18:45:41.659Z,51.57
2018-08-04T18:48:10.766Z,51.60
2018-08-04T18:50:39.982Z,52.00
2018-08-04T18:53:08.945Z,52.68
2018-08-04T18:55:37.903Z,53.01
2018-08-04T18:58:06.812Z,52.86
2018-08-04T19:00:36.100Z,52.14
2018-08-04T19:03:04.747Z,52.32
2018-08-04T19:05:33.408Z,53.09
2018-08-04T19:08:02.371Z,53.26
2018-08-04T19:10:31.261Z,53.02
2018-08-04T19:13:00.244Z,53.36
2018-08-04T19:15:29.297Z,52.37
2018-08-04T19:17:58.136Z,52.86
2018-08-04T19:20:26.922Z,53.55
2018-08-04T19:22:56.123Z,52.66
2018-08-04T19:25:25.363Z,53.00
2018-08-04T19:27:54.785Z,53.44
2018-08-04T19:30:23.554Z,53.86
2018-08-04T19:32:52.735Z,53.24
2018-08-04T19:35:21.953Z,53.46
2018-08-04T19:37:51.014Z,54.23
2018-08-04T19:40:20.128Z,54.48
2018-08-04T19:42:48.786Z,55.13
2018-08-04T19:45:19.317Z,54.97
2018-08-04T19:47:48.587Z,54.60
2018-08-04T19:50:18.210Z,54.17
2018-08-04T19:52:47.218Z,54.29
2018-08-04T19:55:16.280Z,55.43
2018-08-04T19:57:45.210Z,53.79
2018-08-04T20:00:14.037Z,54.03
2018-08-04T20:02:43.380Z,55.05
2018-08-04T20:05:12.133Z,56.69
2018-08-04T20:07:41.579Z,57.58
2018-08-04T20:10:10.404Z,58.02
2018-08-04T20:12:39.164Z,59.55
2018-08-04T20:15:08.081Z,60.01
2018-08-04T20:17:36.968Z,60.70
2018-08-04T20:20:06.273Z,61.14
2018-08-04T20:22:35.128Z,60.86
2018-08-04T20:25:04.062Z,61.75
2018-08-04T20:27:32.896Z,61.84
2018-08-04T20:30:01.760Z,61.94
2018-08-04T20:32:30.683Z,61.88
2018-08-04T20:34:59.906Z,62.72
2018-08-04T20:37:29.283Z,62.70
2018-08-04T20:39:59.050Z,62.27
2018-08-04T20:42:27.797Z,63.08
2018-08-04T20:44:56.573Z,62.79
2018-08-04T20:47:25.496Z,63.03
2018-08-04T20:49:54.352Z,63.78
2018-08-04T20:52:23.270Z,63.01
2018-08-04T20:54:52.084Z,63.78
2018-08-04T20:57:21.244Z,63.31
2018-08-04T20:59:50.245Z,63.59
2018-08-04T21:02:19.631Z,63.47
2018-08-04T21:04:49.202Z,63.78
2018-08-04T21:07:17.968Z,64.37
2018-08-04T21:09:49.493Z,64.22
2018-08-04T21:12:19.749Z,64.51
2018-08-04T21:14:49.315Z,64.90
2018-08-04T21:17:18.205Z,65.19
2018-08-04T21:19:46.957Z,64.81
2018-08-04T21:22:15.976Z,65.10
2018-08-04T21:24:45.295Z,64.60
2018-08-04T21:27:13.992Z,65.20
2018-08-04T21:29:42.852Z,65.25
2018-08-04T21:32:11.671Z,66.15
2018-08-04T21:34:40.965Z,66.00
2018-08-04T21:37:10.455Z,66.02
2018-08-04T21:39:39.452Z,65.68
2018-08-04T21:42:08.548Z,66.59
2018-08-04T21:44:37.605Z,67.00
2018-08-04T21:47:06.967Z,67.11
2018-08-04T21:49:36.192Z,68.47
2018-08-04T21:52:05.344Z,67.97
2018-08-04T21:54:34.384Z,68.45
2018-08-04T21:57:04.025Z,69.20
2018-08-04T21:59:32.696Z,67.90
2018-08-04T22:02:02.011Z,68.11
2018-08-04T22:04:31.391Z,68.71
2018-08-04T22:08:09.847Z,68.03
2018-08-04T22:10:39.094Z,68.75
2018-08-04T22:13:08.978Z,68.13
2018-08-04T22:15:37.671Z,68.90
2018-08-04T22:18:06.427Z,68.73
2018-08-04T22:20:35.064Z,68.71
2018-08-04T22:23:03.673Z,69.42
2018-08-04T22:25:32.589Z,70.09
2018-08-04T22:28:01.759Z,70.12
2018-08-04T22:30:30.792Z,71.21
2018-08-04T22:32:59.574Z,71.51
2018-08-04T22:35:28.267Z,72.05
2018-08-04T22:37:57.234Z,72.32
2018-08-04T22:40:26.334Z,72.04
2018-08-04T22:42:55.231Z,72.40
2018-08-04T22:46:01.917Z,72.56
2018-08-04T22:48:30.746Z,72.83
2018-08-04T22:50:59.446Z,72.52
2018-08-04T22:53:28.755Z,72.77
2018-08-04T22:56:04.128Z,72.62
2018-08-04T22:58:33.020Z,73.39
2018-08-04T23:01:01.825Z,73.96
2018-08-04T23:03:30.725Z,74.04
2018-08-04T23:05:59.448Z,74.00
2018-08-04T23:08:28.318Z,74.90
2018-08-04T23:10:57.281Z,74.00
2018-08-04T23:13:26.374Z,73.13
2018-08-04T23:15:55.463Z,74.21
2018-08-04T23:18:24.357Z,73.70
2018-08-04T23:20:53.467Z,74.44
2018-08-04T23:23:22.567Z,73.87
2018-08-04T23:25:51.228Z,73.46
2018-08-04T23:28:26.888Z,74.07
2018-08-04T23:30:56.339Z,74.21
2018-08-04T23:33:25.070Z,74.28
2018-08-04T23:35:53.957Z,75.10
2018-08-04T23:38:22.844Z,75.70
2018-08-04T23:40:51.703Z,75.82
2018-08-04T23:43:20.819Z,76.39
2018-08-04T23:45:49.532Z,76.23
2018-08-04T23:48:18.135Z,76.78
2018-08-04T23:50:47.022Z,77.03
2018-08-04T23:53:16.003Z,77.23
2018-08-04T23:55:44.879Z,77.96
2018-08-04T23:58:14.913Z,77.19
